Time;durP1;ratioP1;P1;durP2;ratioP2;P2;SDS_P1;SDS_P2;PMS_P1;PMS_P2;Temp;Humidity;BMP_temperature;BMP_pressure;BME280_temperature;BME280_humidity;BME280_pressure;Samples;Min_cycle;Max_cycle;Signal;HPM_P1;HPM_P2
2023/12/11 00:01:11;;;;;;;0.60;0.10;;;10.30;99.90;;;;;;4841852;29;20481;-76
2023/12/11 00:03:40;;;;;;;0.60;0.10;;;10.40;99.90;;;;;;4841826;29;20467;-76
2023/12/11 00:06:09;;;;;;;0.60;0.10;;;10.40;99.90;;;;;;4842164;29;20455;-76
2023/12/11 00:08:37;;;;;;;0.60;0.10;;;10.40;99.90;;;;;;4841427;29;20529;-76
2023/12/11 00:11:08;;;;;;;0.60;0.10;;;10.40;99.90;;;;;;4841908;29;21061;-76
2023/12/11 00:13:36;;;;;;;0.60;0.10;;;10.30;99.90;;;;;;4841955;29;20831;-76
2023/12/11 00:16:05;;;;;;;0.60;0.10;;;10.40;99.90;;;;;;4841521;29;20547;-76
2023/12/11 00:18:33;;;;;;;0.60;0.10;;;10.30;99.90;;;;;;4841179;29;20671;-76
2023/12/11 00:21:01;;;;;;;0.60;0.10;;;10.30;99.90;;;;;;4841820;29;20460;-75
2023/12/11 00:23:29;;;;;;;0.60;0.10;;;10.30;99.90;;;;;;4841649;29;20455;-75
2023/12/11 00:25:57;;;;;;;1.90;0.77;;;10.30;99.90;;;;;;4841862;29;20855;-75
2023/12/11 00:28:27;;;;;;;0.60;0.10;;;10.20;99.90;;;;;;4841866;29;20511;-76
2023/12/11 00:30:55;;;;;;;0.60;0.20;;;10.30;99.90;;;;;;4841724;29;20457;-76
2023/12/11 00:33:23;;;;;;;0.60;0.10;;;10.30;99.90;;;;;;4843309;29;20494;-76
2023/12/11 00:35:51;;;;;;;0.60;0.10;;;10.30;99.90;;;;;;4845265;29;20495;-76
2023/12/11 00:38:19;;;;;;;0.60;0.10;;;10.30;99.90;;;;;;4844843;29;20504;-76
2023/12/11 00:40:47;;;;;;;0.60;0.10;;;10.30;99.90;;;;;;4845360;29;20492;-76
2023/12/11 00:43:15;;;;;;;0.60;0.10;;;10.40;99.90;;;;;;4845267;29;20472;-76
2023/12/11 00:45:45;;;;;;;0.70;0.30;;;10.40;99.90;;;;;;4847920;29;20473;-76
2023/12/11 00:48:13;;;;;;;0.60;0.10;;;10.40;99.90;;;;;;4850704;29;20538;-75
2023/12/11 00:50:41;;;;;;;0.80;0.30;;;10.40;99.90;;;;;;4850988;29;20496;-75
2023/12/11 00:53:09;;;;;;;0.60;0.10;;;10.40;99.90;;;;;;4845693;29;20499;-75
2023/12/11 00:55:37;;;;;;;0.60;0.10;;;10.40;99.90;;;;;;4845286;29;20468;-75
2023/12/11 00:58:05;;;;;;;0.60;0.10;;;10.50;99.90;;;;;;4844456;29;20568;-75
2023/12/11 01:00:33;;;;;;;0.60;0.10;;;10.50;99.90;;;;;;4845092;29;20555;-75
2023/12/11 01:03:03;;;;;;;0.60;0.10;;;10.50;99.90;;;;;;4844692;29;20456;-75
2023/12/11 01:05:31;;;;;;;0.60;0.10;;;10.50;99.90;;;;;;4844461;29;20465;-76
2023/12/11 01:07:59;;;;;;;0.60;0.10;;;10.50;99.90;;;;;;4844335;29;20845;-76
2023/12/11 01:10:27;;;;;;;0.60;0.10;;;10.60;99.90;;;;;;4844699;29;20463;-76
2023/12/11 01:12:55;;;;;;;0.60;0.10;;;10.60;99.90;;;;;;4844577;29;20578;-76
2023/12/11 01:15:23;;;;;;;0.60;0.10;;;10.50;99.90;;;;;;4844730;29;20463;-76
2023/12/11 01:17:51;;;;;;;0.60;0.20;;;10.60;99.90;;;;;;4844826;29;20512;-76
2023/12/11 01:20:21;;;;;;;0.60;0.10;;;10.50;99.90;;;;;;4844975;29;20482;-76
2023/12/11 01:22:49;;;;;;;0.60;0.10;;;10.60;99.90;;;;;;4844732;29;20454;-75
2023/12/11 01:25:17;;;;;;;0.60;0.10;;;10.50;99.90;;;;;;4844948;29;20987;-74
2023/12/11 01:27:45;;;;;;;0.60;0.10;;;10.60;99.90;;;;;;4842976;29;20496;-74
2023/12/11 01:30:13;;;;;;;0.60;0.10;;;10.50;99.90;;;;;;4844802;29;20458;-74
2023/12/11 01:32:41;;;;;;;0.60;0.20;;;10.50;99.90;;;;;;4845329;29;20517;-74
2023/12/11 01:35:09;;;;;;;0.60;0.10;;;10.50;99.90;;;;;;4845345;29;20501;-74
2023/12/11 01:37:38;;;;;;;0.60;0.20;;;10.50;99.90;;;;;;4845707;29;20473;-75
2023/12/11 01:40:08;;;;;;;0.60;0.10;;;10.40;99.90;;;;;;4844276;29;20455;-76
2023/12/11 01:42:36;;;;;;;0.60;0.10;;;;;;;;;;4844119;29;20449;-76
2023/12/11 01:45:05;;;;;;;0.60;0.10;;;10.40;99.90;;;;;;4843912;29;20518;-76
2023/12/11 01:47:33;;;;;;;0.60;0.10;;;10.40;99.90;;;;;;4844171;29;21386;-74
2023/12/11 01:50:03;;;;;;;0.60;0.10;;;10.40;99.90;;;;;;4844204;29;20533;-76
2023/12/11 01:52:31;;;;;;;0.70;0.10;;;10.40;99.90;;;;;;4844262;29;20852;-76
2023/12/11 01:55:00;;;;;;;0.60;0.10;;;10.30;99.90;;;;;;4844521;29;20552;-76
2023/12/11 01:57:30;;;;;;;0.60;0.10;;;10.30;99.90;;;;;;4846837;29;20524;-75
2023/12/11 01:59:58;;;;;;;0.90;0.60;;;;;;;;;;4856562;29;20487;-75
2023/12/11 02:02:29;;;;;;;0.60;0.10;;;10.40;99.90;;;;;;4855150;29;20491;-75
2023/12/11 02:04:58;;;;;;;0.60;0.20;;;;;;;;;;4847778;29;20481;-76
2023/12/11 02:07:26;;;;;;;0.60;0.10;;;10.30;99.90;;;;;;4844942;29;20545;-74
2023/12/11 02:09:54;;;;;;;2.00;1.90;;;10.30;99.90;;;;;;4846016;29;20544;-76
2023/12/11 02:12:23;;;;;;;0.60;0.20;;;11.80;99.90;;;;;;4845322;29;20516;-75
2023/12/11 02:14:51;;;;;;;0.70;0.37;;;10.30;99.90;;;;;;4844935;29;20463;-75
2023/12/11 02:17:19;;;;;;;0.60;0.10;;;10.20;99.90;;;;;;4844934;29;21003;-75
2023/12/11 02:19:47;;;;;;;0.60;0.13;;;10.20;1.00;;;;;;4845203;29;20452;-75
2023/12/11 02:22:16;;;;;;;0.60;0.10;;;10.20;1.00;;;;;;4845100;29;20457;-76
2023/12/11 02:24:48;;;;;;;0.60;0.30;;;10.30;1.00;;;;;;4845226;29;20835;-74
2023/12/11 02:27:18;;;;;;;0.60;0.10;;;10.30;1.00;;;;;;4845785;29;20486;-75
2023/12/11 02:29:46;;;;;;;0.60;0.10;;;10.30;1.00;;;;;;4845955;29;21103;-76
2023/12/11 02:32:16;;;;;;;0.60;0.10;;;10.30;99.90;;;;;;4845948;29;20457;-76
2023/12/11 02:34:47;;;;;;;0.60;0.10;;;10.30;99.90;;;;;;4845970;29;20519;-75
2023/12/11 02:37:15;;;;;;;0.60;0.10;;;10.30;99.90;;;;;;4845766;29;20473;-76
2023/12/11 02:39:45;;;;;;;0.60;0.20;;;10.20;99.90;;;;;;4846756;29;20487;-76
2023/12/11 02:42:13;;;;;;;0.60;0.10;;;10.30;99.90;;;;;;4847161;29;20540;-75
2023/12/11 02:44:42;;;;;;;0.60;0.10;;;10.30;99.90;;;;;;4846147;29;20452;-76
2023/12/11 02:47:10;;;;;;;0.60;0.10;;;10.40;99.90;;;;;;4847406;29;20475;-75
2023/12/11 02:49:38;;;;;;;0.60;0.10;;;10.30;99.90;;;;;;4845903;29;20456;-75
2023/12/11 02:52:07;;;;;;;0.60;0.10;;;10.30;99.90;;;;;;4838845;29;20478;-75
2023/12/11 02:54:35;;;;;;;0.60;0.10;;;10.30;99.90;;;;;;4842991;29;20854;-75
2023/12/11 02:57:03;;;;;;;0.60;0.10;;;10.30;99.90;;;;;;4842535;29;20499;-74
2023/12/11 02:59:31;;;;;;;0.60;0.10;;;10.20;99.90;;;;;;4838518;29;21105;-74
2023/12/11 03:02:00;;;;;;;0.83;0.40;;;10.20;99.90;;;;;;4845738;29;20462;-75
2023/12/11 03:04:28;;;;;;;0.60;0.10;;;10.20;99.90;;;;;;4844989;29;20468;-73
2023/12/11 03:06:56;;;;;;;0.60;0.10;;;10.10;99.90;;;;;;4845454;29;20508;-74
2023/12/11 03:09:24;;;;;;;0.60;0.10;;;10.10;99.90;;;;;;4838650;29;20450;-74
2023/12/11 03:11:54;;;;;;;0.60;0.17;;;10.10;99.90;;;;;;4844547;29;20834;-73
2023/12/11 03:14:22;;;;;;;3.00;1.30;;;10.10;99.90;;;;;;4846111;29;20497;-74
2023/12/11 03:16:50;;;;;;;0.60;0.10;;;10.10;99.90;;;;;;4845471;29;20476;-73
2023/12/11 03:19:19;;;;;;;0.60;0.20;;;10.00;99.90;;;;;;4844842;29;20989;-74
2023/12/11 03:21:47;;;;;;;10.73;1.40;;;10.00;99.90;;;;;;4844433;29;20455;-76
2023/12/11 03:24:15;;;;;;;0.60;0.20;;;10.00;99.90;;;;;;4842188;29;20452;-76
2023/12/11 03:26:43;;;;;;;0.60;0.10;;;10.00;99.90;;;;;;4841940;29;20503;-76
2023/12/11 03:29:11;;;;;;;0.60;0.10;;;10.00;99.90;;;;;;4841343;29;20460;-76
2023/12/11 03:31:39;;;;;;;0.60;0.10;;;10.00;99.90;;;;;;4839000;29;20450;-75
2023/12/11 03:34:07;;;;;;;0.60;0.10;;;9.90;99.90;;;;;;4835235;29;20536;-76
2023/12/11 03:36:37;;;;;;;1.03;0.20;;;9.90;99.90;;;;;;4835721;29;20460;-75
2023/12/11 03:39:07;;;;;;;0.60;0.10;;;9.90;99.90;;;;;;4841628;29;20860;-75
2023/12/11 03:41:35;;;;;;;0.60;0.10;;;9.90;99.90;;;;;;4841765;29;20454;-75
2023/12/11 03:44:03;;;;;;;2.23;0.57;;;9.90;99.90;;;;;;4833956;29;20484;-76
2023/12/11 03:46:31;;;;;;;0.70;0.20;;;10.00;99.90;;;;;;4841826;29;20488;-73
2023/12/11 03:48:59;;;;;;;1.13;0.80;;;10.00;99.90;;;;;;4834224;29;20538;-74
2023/12/11 03:51:27;;;;;;;0.60;0.10;;;10.00;99.90;;;;;;4834855;29;20456;-74
2023/12/11 03:53:57;;;;;;;0.93;0.80;;;;;;;;;;4842996;29;20502;-75
2023/12/11 03:56:25;;;;;;;0.60;0.10;;;10.00;99.90;;;;;;4840817;29;20559;-74
2023/12/11 03:58:53;;;;;;;0.60;0.10;;;10.10;99.90;;;;;;4837283;29;20550;-74
2023/12/11 04:01:21;;;;;;;0.60;0.10;;;10.10;99.90;;;;;;4842750;29;20516;-73
2023/12/11 04:03:49;;;;;;;0.73;0.33;;;10.10;99.90;;;;;;4848182;29;20452;-74
2023/12/11 04:06:17;;;;;;;0.60;0.10;;;10.10;99.90;;;;;;4848831;29;20952;-74
2023/12/11 04:08:45;;;;;;;0.60;0.10;;;10.20;99.90;;;;;;4850167;29;20491;-74
2023/12/11 04:11:14;;;;;;;0.60;0.10;;;10.20;99.90;;;;;;4849107;29;20483;-73
2023/12/11 04:13:42;;;;;;;0.60;0.10;;;10.20;99.90;;;;;;4848824;29;20532;-73
2023/12/11 04:16:11;;;;;;;0.60;0.10;;;10.20;99.90;;;;;;4848131;29;20452;-74
2023/12/11 04:18:41;;;;;;;0.83;0.50;;;10.20;99.90;;;;;;4847818;29;20556;-74
2023/12/11 04:21:09;;;;;;;0.60;0.10;;;10.20;99.90;;;;;;4848431;29;20521;-75
2023/12/11 04:23:37;;;;;;;0.60;0.10;;;10.20;99.90;;;;;;4844964;29;20456;-75
2023/12/11 04:26:05;;;;;;;0.60;0.10;;;10.30;99.90;;;;;;4843623;29;20463;-76
2023/12/11 04:28:34;;;;;;;0.60;0.10;;;10.30;99.90;;;;;;4839975;29;20960;-75
2023/12/11 04:31:02;;;;;;;1.23;0.87;;;10.40;99.90;;;;;;4844130;29;21059;-75
2023/12/11 04:33:32;;;;;;;0.60;0.10;;;10.40;99.90;;;;;;4837810;29;21052;-74
2023/12/11 04:36:01;;;;;;;0.60;0.10;;;10.40;99.90;;;;;;4846341;29;20493;-74
2023/12/11 04:38:29;;;;;;;0.60;0.10;;;10.40;99.90;;;;;;4846935;29;20477;-75
2023/12/11 04:40:56;;;;;;;0.60;0.10;;;10.40;99.90;;;;;;4848275;29;20482;-75
2023/12/11 04:43:24;;;;;;;0.60;0.10;;;10.30;99.90;;;;;;4847782;29;20453;-74
2023/12/11 04:45:57;;;;;;;3.43;3.20;;;10.40;99.90;;;;;;4847857;29;20481;-74
2023/12/11 04:48:25;;;;;;;0.60;0.10;;;10.50;99.90;;;;;;4843934;29;20476;-75
2023/12/11 04:50:53;;;;;;;0.60;0.10;;;10.50;99.90;;;;;;4842801;29;20596;-75
2023/12/11 04:53:21;;;;;;;0.60;0.10;;;10.50;99.90;;;;;;4845327;29;20456;-75
2023/12/11 04:55:49;;;;;;;0.60;0.10;;;10.50;99.90;;;;;;4840878;29;20574;-75
2023/12/11 04:58:17;;;;;;;1.73;1.13;;;10.50;99.90;;;;;;4842419;29;20488;-75
2023/12/11 05:00:45;;;;;;;0.60;0.10;;;10.50;99.90;;;;;;4845506;29;20460;-75
2023/12/11 05:03:14;;;;;;;0.60;0.10;;;10.50;99.90;;;;;;4843207;29;20456;-77
2023/12/11 05:05:42;;;;;;;0.60;0.10;;;10.40;99.90;;;;;;4843187;29;20484;-73
2023/12/11 05:08:10;;;;;;;0.60;0.10;;;10.40;99.90;;;;;;4843700;29;20474;-74
2023/12/11 05:10:38;;;;;;;0.60;0.10;;;10.40;99.90;;;;;;4844988;29;20543;-76
2023/12/11 05:13:06;;;;;;;0.60;0.10;;;10.50;99.90;;;;;;4847897;29;21028;-75
2023/12/11 05:15:34;;;;;;;0.60;0.20;;;10.60;99.90;;;;;;4847103;29;20545;-74
2023/12/11 05:18:02;;;;;;;0.60;0.10;;;10.60;99.90;;;;;;4848059;29;20480;-74
2023/12/11 05:20:31;;;;;;;0.60;0.10;;;10.60;99.90;;;;;;4850194;29;20460;-74
2023/12/11 05:22:59;;;;;;;0.60;0.10;;;10.60;99.90;;;;;;4851030;29;20893;-75
2023/12/11 05:25:27;;;;;;;0.60;0.10;;;10.50;99.90;;;;;;4850927;29;20507;-75
2023/12/11 05:27:55;;;;;;;1.20;0.30;;;10.50;99.90;;;;;;4847980;29;21052;-76
2023/12/11 05:30:24;;;;;;;4.33;4.13;;;10.40;99.90;;;;;;4850123;29;20472;-74
2023/12/11 05:32:51;;;;;;;0.80;0.53;;;10.50;99.90;;;;;;4851189;29;20459;-74
2023/12/11 05:35:20;;;;;;;0.70;0.30;;;10.50;99.90;;;;;;4851357;29;20492;-75
2023/12/11 05:37:49;;;;;;;0.60;0.10;;;10.50;99.90;;;;;;4846203;29;20476;-75
2023/12/11 05:40:17;;;;;;;0.60;0.10;;;10.50;99.90;;;;;;4844419;29;20549;-74
2023/12/11 05:42:50;;;;;;;0.60;0.10;;;10.50;99.90;;;;;;4846381;29;20463;-74
2023/12/11 05:45:19;;;;;;;0.60;0.10;;;10.50;99.90;;;;;;4845434;29;20452;-74
2023/12/11 05:47:47;;;;;;;0.60;0.10;;;10.50;99.90;;;;;;4844333;29;20916;-75
2023/12/11 05:50:15;;;;;;;0.60;0.10;;;10.50;99.90;;;;;;4836536;29;20472;-74
2023/12/11 05:52:44;;;;;;;0.80;0.70;;;10.40;99.90;;;;;;4843612;29;20453;-75
2023/12/11 05:55:13;;;;;;;0.60;0.30;;;10.40;99.90;;;;;;4848024;29;20583;-74
2023/12/11 05:57:41;;;;;;;0.60;0.10;;;10.40;99.90;;;;;;4848215;29;20538;-75
2023/12/11 06:00:12;;;;;;;1.20;0.50;;;10.50;99.90;;;;;;4850107;29;20466;-74
2023/12/11 06:02:40;;;;;;;0.80;0.50;;;10.50;99.90;;;;;;4849375;29;20964;-75
2023/12/11 06:05:09;;;;;;;0.60;0.10;;;10.40;99.90;;;;;;4848615;29;20456;-75
2023/12/11 06:07:37;;;;;;;0.80;0.57;;;10.40;99.90;;;;;;4846226;29;20473;-74
2023/12/11 06:10:06;;;;;;;0.60;0.10;;;10.40;99.90;;;;;;4846198;29;20459;-74
2023/12/11 06:12:36;;;;;;;0.60;0.17;;;10.40;99.90;;;;;;4837533;29;20533;-74
2023/12/11 06:15:04;;;;;;;0.60;0.20;;;10.40;99.90;;;;;;4844615;29;20496;-74
2023/12/11 06:17:32;;;;;;;1.20;1.10;;;10.40;99.90;;;;;;4843300;29;20468;-74
2023/12/11 06:20:01;;;;;;;0.60;0.20;;;10.40;99.90;;;;;;4843626;29;20504;-75
2023/12/11 06:22:29;;;;;;;0.60;0.10;;;10.40;99.90;;;;;;4843768;29;20459;-75
2023/12/11 06:24:57;;;;;;;0.60;0.10;;;10.40;99.90;;;;;;4843084;29;20517;-74
2023/12/11 06:27:27;;;;;;;0.60;0.20;;;10.40;99.90;;;;;;4844055;29;20889;-75
2023/12/11 06:29:57;;;;;;;0.60;0.10;;;10.50;99.90;;;;;;4845412;29;20457;-76
2023/12/11 06:32:25;;;;;;;0.60;0.10;;;10.50;99.90;;;;;;4845208;29;20468;-77
2023/12/11 06:34:53;;;;;;;0.60;0.10;;;10.50;99.90;;;;;;4842729;29;20459;-77
2023/12/11 06:37:21;;;;;;;0.90;0.40;;;10.40;99.90;;;;;;4842884;29;20482;-76
2023/12/11 06:39:49;;;;;;;0.60;0.30;;;10.50;99.90;;;;;;4842612;29;20486;-75
2023/12/11 06:42:17;;;;;;;0.60;0.10;;;10.40;99.90;;;;;;4843139;29;20460;-75
2023/12/11 06:44:45;;;;;;;1.10;0.93;;;10.50;99.90;;;;;;4842934;29;20569;-75
2023/12/11 06:47:15;;;;;;;3.40;3.20;;;10.40;99.90;;;;;;4842614;29;20893;-75
2023/12/11 06:49:44;;;;;;;0.60;0.10;;;10.40;99.90;;;;;;4842542;29;20448;-74
2023/12/11 06:52:12;;;;;;;0.60;0.20;;;10.50;99.90;;;;;;4842668;29;20480;-75
2023/12/11 06:54:48;;;;;;;0.70;0.30;;;;;;;;;;4842198;29;20449;-75
2023/12/11 06:57:16;;;;;;;0.70;0.30;;;10.50;99.90;;;;;;4834460;29;20494;-75
2023/12/11 06:59:44;;;;;;;0.60;0.10;;;10.50;99.90;;;;;;4842075;29;20544;-74
2023/12/11 07:02:12;;;;;;;0.60;0.20;;;10.50;99.90;;;;;;4841478;29;20493;-75
2023/12/11 07:04:43;;;;;;;0.60;0.10;;;10.40;99.90;;;;;;4841483;29;20469;-75
2023/12/11 07:07:11;;;;;;;0.60;0.10;;;10.40;99.90;;;;;;4841871;29;20896;-75
2023/12/11 07:09:39;;;;;;;0.60;0.30;;;10.50;99.90;;;;;;4837415;29;20453;-74
2023/12/11 07:12:08;;;;;;;0.60;0.10;;;10.50;99.90;;;;;;4842927;29;20907;-75
2023/12/11 07:14:36;;;;;;;0.60;0.10;;;10.40;99.90;;;;;;4842287;29;20502;-76
2023/12/11 07:17:04;;;;;;;0.60;0.10;;;10.40;99.90;;;;;;4842199;29;20494;-75
2023/12/11 07:19:32;;;;;;;0.60;0.10;;;10.40;99.90;;;;;;4841854;29;20460;-76
2023/12/11 07:22:01;;;;;;;0.60;0.10;;;10.40;99.90;;;;;;4842133;29;20481;-76
2023/12/11 07:24:29;;;;;;;1.00;0.73;;;10.40;99.90;;;;;;4842238;29;20489;-76
2023/12/11 07:26:57;;;;;;;3.33;0.50;;;10.30;99.90;;;;;;4842076;29;20469;-75
2023/12/11 07:29:25;;;;;;;0.60;0.10;;;10.30;99.90;;;;;;4843896;29;20471;-75
2023/12/11 07:31:53;;;;;;;0.90;0.40;;;10.30;99.90;;;;;;4843087;29;20535;-75
2023/12/11 07:34:22;;;;;;;0.60;0.10;;;;;;;;;;4842008;29;20458;-77
2023/12/11 07:36:51;;;;;;;0.60;0.10;;;10.40;99.90;;;;;;4840652;29;21027;-75
2023/12/11 07:39:21;;;;;;;1.37;0.50;;;10.40;99.90;;;;;;4843700;29;20551;-73
2023/12/11 07:41:49;;;;;;;0.60;0.10;;;10.40;99.90;;;;;;4848826;29;20587;-76
2023/12/11 07:44:17;;;;;;;0.70;0.40;;;10.30;99.90;;;;;;4857212;29;20447;-76
2023/12/11 07:46:45;;;;;;;0.67;0.23;;;10.30;99.90;;;;;;4842112;29;20996;-76
2023/12/11 07:49:13;;;;;;;0.70;0.43;;;10.20;99.90;;;;;;4849881;29;20453;-76
2023/12/11 07:51:43;;;;;;;0.60;0.10;;;10.20;99.90;;;;;;4850423;29;20489;-75
2023/12/11 07:54:11;;;;;;;0.60;0.30;;;10.20;99.90;;;;;;4842847;29;20452;-75
2023/12/11 07:56:40;;;;;;;0.77;0.30;;;10.20;99.90;;;;;;4847516;29;20484;-76
2023/12/11 07:59:10;;;;;;;0.60;0.10;;;10.30;99.90;;;;;;4848470;29;20874;-74
2023/12/11 08:01:38;;;;;;;3.33;3.07;;;10.20;99.90;;;;;;4841783;29;20478;-76
2023/12/11 08:04:06;;;;;;;0.70;0.53;;;10.20;99.90;;;;;;4841934;29;20481;-76
2023/12/11 08:06:34;;;;;;;0.80;0.20;;;10.20;99.90;;;;;;4848598;29;20448;-76
2023/12/11 08:09:03;;;;;;;0.60;0.10;;;10.30;99.90;;;;;;4841562;29;20859;-76
2023/12/11 08:11:30;;;;;;;1.87;0.63;;;10.30;99.90;;;;;;4851114;29;20536;-76
2023/12/11 08:14:00;;;;;;;0.70;0.20;;;10.30;99.90;;;;;;4854144;29;20542;-75
2023/12/11 08:16:28;;;;;;;0.60;0.30;;;10.30;99.90;;;;;;4851073;29;21086;-76
2023/12/11 08:18:56;;;;;;;0.60;0.20;;;10.30;99.90;;;;;;4841558;29;20976;-77
2023/12/11 08:21:24;;;;;;;0.60;0.10;;;10.30;99.90;;;;;;4842068;29;20981;-75
2023/12/11 08:23:52;;;;;;;0.60;0.10;;;10.30;99.90;;;;;;4842428;29;20536;-75
2023/12/11 08:26:20;;;;;;;0.60;0.20;;;10.20;99.90;;;;;;4841580;29;20444;-75
2023/12/11 08:28:49;;;;;;;0.60;0.20;;;10.30;99.90;;;;;;4841411;29;20463;-77
2023/12/11 08:31:19;;;;;;;0.83;0.60;;;;;;;;;;4847840;29;20463;-75
2023/12/11 08:33:47;;;;;;;0.60;0.10;;;10.40;99.90;;;;;;4846041;29;21014;-77
2023/12/11 08:36:15;;;;;;;1.03;0.77;;;10.40;99.90;;;;;;4860421;29;20547;-77
2023/12/11 08:38:43;;;;;;;0.60;0.20;;;10.50;99.90;;;;;;4833945;29;20904;-77
2023/12/11 08:41:11;;;;;;;3.63;1.10;;;10.60;99.90;;;;;;4841871;29;20460;-77
2023/12/11 08:43:40;;;;;;;2.30;1.30;;;10.60;99.90;;;;;;4842382;29;20465;-76
2023/12/11 08:46:08;;;;;;;0.70;0.23;;;10.60;99.90;;;;;;4842229;29;20954;-76
2023/12/11 08:48:37;;;;;;;1.23;0.40;;;10.70;99.90;;;;;;4844871;29;20481;-75
2023/12/11 08:51:06;;;;;;;2.90;0.50;;;10.80;99.90;;;;;;4841327;29;20460;-75
2023/12/11 08:53:34;;;;;;;0.60;0.10;;;10.80;99.90;;;;;;4841564;29;20539;-75
2023/12/11 08:56:02;;;;;;;0.60;0.10;;;10.90;99.90;;;;;;4844799;29;20823;-75
2023/12/11 08:58:30;;;;;;;0.60;0.10;;;11.00;99.90;;;;;;4844079;29;20479;-76
2023/12/11 09:00:58;;;;;;;1.97;0.90;;;11.00;99.90;;;;;;4846603;29;20847;-77
2023/12/11 09:03:26;;;;;;;0.60;0.10;;;11.10;99.90;;;;;;4844699;29;20852;-76
2023/12/11 09:05:56;;;;;;;0.60;0.10;;;11.20;99.90;;;;;;4852065;29;20453;-75
2023/12/11 09:08:25;;;;;;;0.60;0.10;;;11.20;99.90;;;;;;4850658;29;20476;-76
2023/12/11 09:10:54;;;;;;;0.60;0.10;;;11.30;99.90;;;;;;4859525;29;20844;-74
2023/12/11 09:13:23;;;;;;;0.60;0.10;;;11.40;99.90;;;;;;4857089;29;20472;-77
2023/12/11 09:15:56;;;;;;;0.70;0.10;;;11.50;99.90;;;;;;4845184;29;20487;-78
2023/12/11 09:18:25;;;;;;;0.70;0.20;;;11.50;99.90;;;;;;4843805;29;20527;-77
2023/12/11 09:20:53;;;;;;;0.70;0.10;;;11.50;99.90;;;;;;4844798;29;20451;-75
2023/12/11 09:23:22;;;;;;;0.70;0.10;;;11.60;99.90;;;;;;4843872;29;20453;-76
2023/12/11 09:25:50;;;;;;;0.70;0.10;;;11.60;99.90;;;;;;4844139;29;20539;-76
2023/12/11 09:28:18;;;;;;;0.70;0.10;;;11.70;99.90;;;;;;4846810;29;20580;-76
2023/12/11 09:30:46;;;;;;;1.77;0.50;;;11.80;99.90;;;;;;4840032;29;20870;-79
2023/12/11 09:33:15;;;;;;;0.70;0.10;;;11.90;99.90;;;;;;4848234;29;20454;-77
2023/12/11 09:35:44;;;;;;;0.70;0.30;;;11.90;99.90;;;;;;4848789;29;20490;-78
2023/12/11 09:38:15;;;;;;;1.30;0.93;;;;;;;;;;4847887;29;21010;-76
2023/12/11 09:40:44;;;;;;;0.70;0.10;;;11.90;99.90;;;;;;4831192;29;20482;-77
2023/12/11 09:43:13;;;;;;;1.03;0.93;;;12.00;99.90;;;;;;4844296;29;20454;-76
2023/12/11 09:45:44;;;;;;;0.70;0.10;;;12.00;99.90;;;;;;4844906;29;20513;-75
2023/12/11 09:48:12;;;;;;;0.70;0.10;;;12.00;99.90;;;;;;4844155;29;20478;-75
2023/12/11 09:50:42;;;;;;;0.70;0.10;;;12.10;99.90;;;;;;4843771;29;20442;-75
2023/12/11 09:53:10;;;;;;;0.70;0.10;;;12.20;99.90;;;;;;4839078;29;20490;-76
2023/12/11 09:55:38;;;;;;;0.70;0.10;;;12.30;99.90;;;;;;4844829;29;20489;-76
2023/12/11 09:58:09;;;;;;;0.70;0.10;;;12.40;99.90;;;;;;4843768;29;20949;-75
2023/12/11 10:00:37;;;;;;;0.70;0.10;;;12.50;99.90;;;;;;4845981;29;20466;-76
2023/12/11 10:03:07;;;;;;;0.70;0.10;;;12.50;99.90;;;;;;4848910;29;20535;-75
2023/12/11 10:05:37;;;;;;;0.70;0.10;;;12.50;99.90;;;;;;4842775;29;20504;-75
2023/12/11 10:08:05;;;;;;;0.70;0.10;;;12.60;99.90;;;;;;4843796;29;20467;-75
2023/12/11 10:10:37;;;;;;;0.70;0.10;;;12.70;99.90;;;;;;4844043;29;20482;-76
2023/12/11 10:13:05;;;;;;;0.70;0.20;;;12.60;99.90;;;;;;4851291;29;20483;-75
2023/12/11 10:15:36;;;;;;;0.67;0.10;;;12.60;99.90;;;;;;4843509;29;20487;-75
2023/12/11 10:18:06;;;;;;;0.70;0.20;;;12.60;99.90;;;;;;4843893;29;20909;-74
2023/12/11 10:20:36;;;;;;;0.70;0.10;;;12.60;99.90;;;;;;4843979;29;20479;-76
2023/12/11 10:23:16;;;;;;;0.87;0.27;;;12.60;99.90;;;;;;4844929;29;20454;-75
2023/12/11 10:25:48;;;;;;;0.70;0.10;;;12.50;99.90;;;;;;4844606;29;20466;-75
2023/12/11 10:28:18;;;;;;;1.37;1.27;;;12.40;99.90;;;;;;4844460;29;20473;-74
2023/12/11 10:30:55;;;;;;;0.70;0.40;;;12.40;99.90;;;;;;4844985;29;20526;-77
2023/12/11 10:33:25;;;;;;;0.70;0.10;;;12.40;99.90;;;;;;4841574;29;20777;-74
2023/12/11 10:36:07;;;;;;;0.90;0.27;;;12.50;99.90;;;;;;4844626;29;20462;-75
2023/12/11 10:38:35;;;;;;;1.20;1.07;;;12.50;99.90;;;;;;4843883;29;20506;-76
2023/12/11 10:41:04;;;;;;;2.10;0.40;;;12.50;99.90;;;;;;4843925;29;20495;-75
2023/12/11 10:43:39;;;;;;;0.70;0.10;;;12.50;99.90;;;;;;4845941;29;20465;-76
2023/12/11 10:46:29;;;;;;;0.73;0.27;;;12.70;99.90;;;;;;4850499;29;20462;-76
2023/12/11 10:48:58;;;;;;;3.40;0.83;;;12.70;99.90;;;;;;4844543;29;20519;-76
2023/12/11 10:51:28;;;;;;;2.10;0.63;;;12.70;99.90;;;;;;4845378;29;20558;-76
2023/12/11 10:53:56;;;;;;;2.17;1.97;;;12.70;99.90;;;;;;4844276;29;20462;-75
2023/12/11 10:56:26;;;;;;;0.70;0.10;;;12.80;99.90;;;;;;4840113;29;20518;-75
2023/12/11 10:58:57;;;;;;;5.67;2.07;;;12.70;99.90;;;;;;4842732;29;21004;-76
2023/12/11 11:01:25;;;;;;;1.37;0.57;;;12.60;99.90;;;;;;4835426;29;20459;-77
2023/12/11 11:03:55;;;;;;;2.30;1.27;;;12.60;99.90;;;;;;4842875;29;21022;-75
2023/12/11 11:06:23;;;;;;;0.70;0.20;;;12.70;99.90;;;;;;4842987;29;20455;-75
2023/12/11 11:09:00;;;;;;;5.90;0.97;;;12.80;99.90;;;;;;4843039;29;20819;-76
2023/12/11 11:11:32;;;;;;;1.47;0.57;;;12.70;99.90;;;;;;4843029;29;20457;-75
2023/12/11 11:14:26;;;;;;;1.63;0.63;;;12.80;99.90;;;;;;4842863;29;20974;-74
2023/12/11 11:16:54;;;;;;;0.80;0.30;;;12.80;99.90;;;;;;4834608;29;20473;-75
2023/12/11 11:19:27;;;;;;;2.53;0.50;;;12.80;99.90;;;;;;4842306;29;20547;-75
2023/12/11 11:22:20;;;;;;;1.53;0.53;;;12.70;99.90;;;;;;4849055;29;20456;-76
2023/12/11 11:25:33;;;;;;;0.70;0.20;;;12.80;99.90;;;;;;4842459;29;20494;-74
2023/12/11 11:28:02;;;;;;;3.50;0.50;;;12.80;99.90;;;;;;4842188;29;21061;-76
2023/12/11 11:30:51;;;;;;;1.97;0.40;;;12.80;99.90;;;;;;4842311;29;20538;-76
2023/12/11 11:33:20;;;;;;;0.70;0.30;;;12.80;99.90;;;;;;4844028;29;20448;-78
2023/12/11 11:35:54;;;;;;;1.30;0.63;;;12.80;99.90;;;;;;4842803;29;20976;-76
2023/12/11 11:38:52;;;;;;;0.60;0.10;;;12.80;99.90;;;;;;4843318;29;20516;-76
2023/12/11 11:41:24;;;;;;;0.90;0.50;;;12.80;99.90;;;;;;4843535;29;20938;-76
2023/12/11 11:44:00;;;;;;;2.10;0.93;;;12.70;99.90;;;;;;4833071;29;20450;-76
2023/12/11 11:46:29;;;;;;;1.53;0.77;;;12.70;99.90;;;;;;4846119;29;20467;-75
2023/12/11 11:48:56;;;;;;;1.43;0.60;;;12.60;99.90;;;;;;4846325;29;20546;-74
2023/12/11 11:51:29;;;;;;;0.60;0.20;;;12.60;99.90;;;;;;4847364;29;20537;-74
2023/12/11 11:54:00;;;;;;;1.33;0.57;;;12.70;99.90;;;;;;4836723;29;20528;-75
2023/12/11 11:56:28;;;;;;;1.00;0.20;;;12.70;99.90;;;;;;4841795;29;20966;-75
2023/12/11 11:59:05;;;;;;;1.00;0.60;;;12.70;99.90;;;;;;4842516;29;20487;-74
2023/12/11 12:01:34;;;;;;;2.37;0.70;;;12.70;99.90;;;;;;4842248;29;20543;-74
2023/12/11 12:04:03;;;;;;;3.33;1.00;;;12.70;99.90;;;;;;4842583;29;20570;-77
2023/12/11 12:06:32;;;;;;;7.30;0.43;;;12.80;99.90;;;;;;4842378;29;20608;-76
2023/12/11 12:09:01;;;;;;;3.13;0.93;;;12.70;99.90;;;;;;4842120;29;20530;-75
2023/12/11 12:11:30;;;;;;;0.70;0.13;;;12.80;99.90;;;;;;4842899;29;20546;-77
2023/12/11 12:13:58;;;;;;;0.60;0.10;;;12.80;99.90;;;;;;4831723;29;20497;-76
2023/12/11 12:16:29;;;;;;;2.13;0.53;;;12.80;99.90;;;;;;4838764;29;20454;-77
2023/12/11 12:18:57;;;;;;;1.80;0.40;;;;;;;;;;4842169;29;20911;-77
2023/12/11 12:21:25;;;;;;;2.20;0.93;;;;;;;;;;4842146;29;20462;-77
2023/12/11 12:24:03;;;;;;;3.87;0.73;;;12.70;99.90;;;;;;4842060;29;20515;-77
2023/12/11 12:26:32;;;;;;;2.70;1.43;;;12.80;99.90;;;;;;4841823;29;20459;-77
2023/12/11 12:29:00;;;;;;;0.60;0.10;;;12.80;99.90;;;;;;4839014;29;20826;-77
2023/12/11 12:31:30;;;;;;;0.70;0.20;;;12.90;99.90;;;;;;4847230;29;20465;-76
2023/12/11 12:33:58;;;;;;;0.60;0.13;;;12.90;99.90;;;;;;4840083;29;20902;-77
2023/12/11 12:36:26;;;;;;;0.60;0.10;;;13.00;99.90;;;;;;4845338;29;20943;-75
2023/12/11 12:38:56;;;;;;;0.60;0.10;;;13.00;99.90;;;;;;4838439;29;20499;-75
2023/12/11 12:41:25;;;;;;;1.53;1.30;;;13.00;99.90;;;;;;4846126;29;20468;-75
2023/12/11 12:43:58;;;;;;;3.73;0.57;;;12.90;99.90;;;;;;4845432;29;20891;-75
2023/12/11 12:46:27;;;;;;;0.60;0.20;;;12.90;99.90;;;;;;4845774;29;20516;-77
2023/12/11 12:48:56;;;;;;;1.47;0.40;;;12.80;99.90;;;;;;4848004;29;20453;-76
2023/12/11 12:51:24;;;;;;;0.60;0.10;;;12.80;99.90;;;;;;4849285;29;20450;-76
2023/12/11 12:53:56;;;;;;;1.43;0.70;;;12.90;99.90;;;;;;4842417;29;20651;-76
2023/12/11 12:56:25;;;;;;;1.00;0.30;;;;;;;;;;4841736;29;20463;-75
2023/12/11 12:58:57;;;;;;;1.20;0.67;;;12.80;99.90;;;;;;4844049;29;20567;-75
2023/12/11 13:01:25;;;;;;;1.13;0.50;;;12.80;99.90;;;;;;4845955;29;20489;-75